ENEV

Harstad / Narvik , Evenes Airport

Evenes, Norway
TAF ENEV 171400Z 1715/1721 23008KT 9999 FEW015 BKN030 TEMPO 1715/1721 21015G25KT SHRA SCT025CB
Issued Valid From Valid To
Aug-17 @ 14:00 UTC
(58 minutes ago)
Aug-17 @ 15:00 UTC
(in 2 minutes)
Aug-17 @ 21:00 UTC
(in 6 hours)
Aug-17 @ 15:00 to Aug-17 @ 21:00
TAF ENEV 171400Z 1715/1721 23008KT 9999 FEW015 BKN030
Wind Visibility Clouds
230° at 8 knots 10,000+ meters
  • Few at 1,500' AGL
  • Broken at 3,000' AGL
Temporary Aug-17 @ 15:00 to Aug-17 @ 21:00
TEMPO 1715/1721 21015G25KT SHRA SCT025CB
Wind Clouds Conditions
210° at 15 knots
 Gusting to 25 knots
  • Scattered at 2,500' AGL
  • Rain
TAF ENEV 171400Z 1715/1721 23008KT 9999 FEW015 BKN030 TEMPO 1715/1721 21015G25KT SHRA SCT025CB
Issued Aug-17 @ 14:00 UTC
(58 minutes ago)
Valid From Aug-17 @ 15:00 UTC
(in 2 minutes)
Valid To Aug-17 @ 21:00 UTC
(in 6 hours)
Aug-17 @ 15:00 - Aug-17 @ 21:00
Wind Visibility
230° at 8 knots 10,000+ meters
Clouds
  • Few at 1,500' AGL
  • Broken at 3,000' AGL
Temporary Aug-17 @ 15:00 - Aug-17 @ 21:00
Wind
210° at 15 knots
 Gusting to 25 knots
Clouds
  • Scattered at 2,500' AGL
Conditions
  • Rain